Time;durP1;ratioP1;P1;durP2;ratioP2;P2;SDS_P1;SDS_P2;PMS_P1;PMS_P2;Temp;Humidity;BMP_temperature;BMP_pressure;BME280_temperature;BME280_humidity;BME280_pressure;Samples;Min_cycle;Max_cycle;Signal;HPM_P1;HPM_P2
2022/09/21 00:00:24;;;;;;;6.88;4.80;;;10.40;73.70;;;;;;4995599;28;20049;-60
2022/09/21 00:02:50;;;;;;;6.78;4.68;;;10.30;73.40;;;;;;4995046;28;20056;-59
2022/09/21 00:05:16;;;;;;;7.97;5.00;;;10.30;73.20;;;;;;4995750;28;20138;-61
2022/09/21 00:07:42;;;;;;;7.18;4.80;;;10.20;73.20;;;;;;4995150;28;20568;-61
2022/09/21 00:10:09;;;;;;;5.93;4.72;;;10.20;73.20;;;;;;4991686;28;20414;-60
2022/09/21 00:12:37;;;;;;;7.20;4.82;;;10.10;73.20;;;;;;4994347;28;20026;-59
2022/09/21 00:15:08;;;;;;;6.90;4.25;;;10.00;73.40;;;;;;4996684;28;20112;-62
2022/09/21 00:17:34;;;;;;;8.27;5.18;;;10.00;73.60;;;;;;4995487;28;20206;-58
2022/09/21 00:20:01;;;;;;;8.23;4.40;;;9.90;74.50;;;;;;4993818;28;20638;-60
2022/09/21 00:22:27;;;;;;;5.20;4.10;;;9.80;73.70;;;;;;4995953;28;20034;-62
2022/09/21 00:24:54;;;;;;;4.25;3.60;;;9.80;74.00;;;;;;4995860;28;20112;-61
2022/09/21 00:27:20;;;;;;;4.20;3.65;;;9.70;74.00;;;;;;4994525;28;20498;-61
2022/09/21 00:29:47;;;;;;;4.45;3.58;;;9.60;74.40;;;;;;4982535;28;20043;-61
2022/09/21 00:32:14;;;;;;;7.63;3.83;;;9.60;74.70;;;;;;4976258;28;20541;-60
2022/09/21 00:34:40;;;;;;;5.30;3.60;;;9.60;74.90;;;;;;4972943;28;20869;-60
2022/09/21 00:37:08;;;;;;;5.53;3.28;;;9.60;74.70;;;;;;4974849;28;20042;-60
2022/09/21 00:39:33;;;;;;;6.28;3.95;;;9.60;74.60;;;;;;4976785;28;20176;-61
2022/09/21 00:41:59;;;;;;;4.28;3.47;;;9.60;74.40;;;;;;4971830;28;20030;-60
2022/09/21 00:44:32;;;;;;;3.95;3.55;;;9.50;74.50;;;;;;4974824;28;20117;-61
2022/09/21 00:47:22;;;;;;;4.05;3.35;;;9.40;74.90;;;;;;4977062;28;20034;-60
2022/09/21 00:49:53;;;;;;;5.50;4.30;;;9.40;75.10;;;;;;4975654;28;20100;-61
2022/09/21 00:52:19;;;;;;;4.18;3.60;;;9.30;74.80;;;;;;4975295;28;20034;-61
2022/09/21 00:54:49;;;;;;;3.95;3.55;;;9.30;74.70;;;;;;4973484;28;20042;-59
2022/09/21 00:57:16;;;;;;;6.88;3.90;;;9.20;75.00;;;;;;4974755;28;20527;-59
2022/09/21 00:59:43;;;;;;;5.10;3.58;;;9.20;75.10;;;;;;4974391;28;20581;-60
2022/09/21 01:02:09;;;;;;;4.22;3.83;;;9.10;75.20;;;;;;4979094;28;20041;-61
2022/09/21 01:04:36;;;;;;;7.80;3.50;;;9.10;75.20;;;;;;4972677;28;20462;-61
2022/09/21 01:07:07;;;;;;;4.80;3.47;;;9.00;75.30;;;;;;4975386;28;20121;-61
2022/09/21 01:09:33;;;;;;;6.03;3.80;;;9.00;75.60;;;;;;4975997;28;20100;-60
2022/09/21 01:12:24;;;;;;;4.25;3.13;;;8.90;75.60;;;;;;4973359;28;20035;-58
2022/09/21 01:15:13;;;;;;;6.65;3.42;;;8.90;76.30;;;;;;4994903;28;20514;-61
2022/09/21 01:17:47;;;;;;;5.82;3.35;;;8.90;76.30;;;;;;4994757;28;20041;-61
2022/09/21 01:20:40;;;;;;;6.57;3.25;;;8.90;76.40;;;;;;4992594;28;20034;-61
2022/09/21 01:23:12;;;;;;;3.38;3.05;;;8.90;76.60;;;;;;4973008;28;20511;-61
2022/09/21 01:25:44;;;;;;;4.50;3.05;;;8.90;76.00;;;;;;4976427;28;20047;-59
2022/09/21 01:28:51;;;;;;;4.38;3.10;;;9.00;76.00;;;;;;4974418;28;20507;-60
2022/09/21 01:31:24;;;;;;;5.47;2.88;;;9.00;76.10;;;;;;4975516;28;20117;-60
2022/09/21 01:33:54;;;;;;;4.97;2.90;;;9.00;75.60;;;;;;4976335;28;20506;-61
2022/09/21 01:36:26;;;;;;;4.97;3.05;;;9.00;75.30;;;;;;4972903;28;20038;-60
2022/09/21 01:38:57;;;;;;;3.47;2.90;;;9.00;75.10;;;;;;4976740;28;20030;-61
2022/09/21 01:41:25;;;;;;;3.65;2.92;;;9.00;74.90;;;;;;4974222;28;20035;-62
2022/09/21 01:43:56;;;;;;;3.83;2.85;;;9.00;74.70;;;;;;4976198;28;20045;-61
2022/09/21 01:46:26;;;;;;;3.13;2.83;;;8.90;74.60;;;;;;4976162;28;20049;-60
2022/09/21 01:48:57;;;;;;;4.40;3.00;;;8.90;74.90;;;;;;4975120;28;20039;-62
2022/09/21 01:51:26;;;;;;;4.32;2.97;;;8.90;75.20;;;;;;4973923;28;20122;-61
2022/09/21 01:54:00;;;;;;;3.95;3.40;;;8.90;75.00;;;;;;4975966;28;20042;-60
2022/09/21 01:56:32;;;;;;;3.80;3.00;;;8.80;74.90;;;;;;4974531;28;20043;-59
2022/09/21 01:59:13;;;;;;;3.63;3.17;;;8.80;74.80;;;;;;4975247;28;20038;-61
2022/09/21 02:01:46;;;;;;;3.17;2.85;;;8.80;74.90;;;;;;4976029;28;20038;-61
2022/09/21 02:04:12;;;;;;;3.88;3.20;;;8.80;74.50;;;;;;4974284;28;20031;-60
2022/09/21 02:06:45;;;;;;;3.72;3.05;;;8.70;74.40;;;;;;4974466;28;20047;-61
2022/09/21 02:09:10;;;;;;;4.00;3.03;;;8.70;74.60;;;;;;4974782;28;21042;-60
2022/09/21 02:11:37;;;;;;;3.72;2.97;;;8.70;74.70;;;;;;4973841;28;20057;-59
2022/09/21 02:14:04;;;;;;;3.38;2.70;;;8.60;74.90;;;;;;4976617;28;20042;-61
2022/09/21 02:16:39;;;;;;;4.15;2.70;;;8.60;74.80;;;;;;4977820;28;20190;-60
2022/09/21 02:19:33;;;;;;;7.85;2.72;;;8.60;74.60;;;;;;4978481;28;20049;-61
2022/09/21 02:22:07;;;;;;;3.20;2.83;;;8.60;74.70;;;;;;4979207;28;20097;-60
2022/09/21 02:24:42;;;;;;;3.15;2.65;;;8.40;74.70;;;;;;4977725;28;20035;-61
2022/09/21 02:27:29;;;;;;;3.00;2.70;;;8.50;74.70;;;;;;4979002;28;20542;-58
2022/09/21 02:30:19;;;;;;;2.75;2.55;;;8.50;74.60;;;;;;4976690;28;20217;-60
2022/09/21 02:33:00;;;;;;;7.78;2.72;;;8.50;74.50;;;;;;4978061;28;20050;-59
2022/09/21 02:35:42;;;;;;;2.97;2.67;;;8.40;74.50;;;;;;4977833;28;20086;-60
2022/09/21 02:38:20;;;;;;;3.67;3.10;;;8.40;75.00;;;;;;4976574;28;20114;-61
2022/09/21 02:40:55;;;;;;;2.97;2.60;;;8.40;74.80;;;;;;4978980;28;20045;-60
2022/09/21 02:43:29;;;;;;;4.20;2.80;;;8.40;74.50;;;;;;4978156;28;21194;-61
2022/09/21 02:46:04;;;;;;;3.13;2.60;;;8.40;74.40;;;;;;4977782;28;20614;-59
2022/09/21 02:48:37;;;;;;;2.90;2.53;;;8.30;74.40;;;;;;4975760;28;20039;-59
2022/09/21 02:51:09;;;;;;;3.10;2.60;;;8.30;74.60;;;;;;4977073;28;20150;-61
2022/09/21 02:53:37;;;;;;;3.22;2.47;;;8.20;74.80;;;;;;4978575;28;20038;-61
2022/09/21 02:56:06;;;;;;;3.60;3.13;;;8.20;75.00;;;;;;4979420;28;20062;-61
2022/09/21 02:58:39;;;;;;;7.55;4.22;;;8.20;74.90;;;;;;4979725;28;20415;-61
2022/09/21 03:01:07;;;;;;;18.95;4.43;;;8.20;74.80;;;;;;4979316;28;20045;-60
2022/09/21 03:03:33;;;;;;;5.10;3.97;;;8.10;74.90;;;;;;4979737;28;20540;-61
2022/09/21 03:06:00;;;;;;;6.13;4.10;;;8.10;75.30;;;;;;4980069;28;20047;-61
2022/09/21 03:08:26;;;;;;;5.03;3.95;;;8.10;76.60;;;;;;4978703;28;20042;-59
2022/09/21 03:10:52;;;;;;;4.97;4.03;;;8.00;75.90;;;;;;4979909;28;20054;-61
2022/09/21 03:13:18;;;;;;;3.78;3.35;;;8.10;76.00;;;;;;4976656;28;20042;-60
2022/09/21 03:15:44;;;;;;;4.57;3.75;;;8.10;76.00;;;;;;4979506;28;20042;-61
2022/09/21 03:18:11;;;;;;;6.22;3.85;;;8.10;76.10;;;;;;4979985;28;20065;-61
2022/09/21 03:20:39;;;;;;;3.95;3.45;;;8.00;77.00;;;;;;4980294;28;20042;-61
2022/09/21 03:23:05;;;;;;;6.32;3.92;;;8.10;76.20;;;;;;4978058;28;20042;-61
2022/09/21 03:25:32;;;;;;;7.90;3.90;;;8.20;76.30;;;;;;4979440;28;20485;-62
2022/09/21 03:27:57;;;;;;;9.90;3.72;;;8.20;76.20;;;;;;4980292;28;20030;-62
2022/09/21 03:30:25;;;;;;;5.20;4.18;;;8.20;76.50;;;;;;4979958;28;20039;-60
2022/09/21 03:32:52;;;;;;;5.20;4.00;;;8.20;76.80;;;;;;4980148;28;20118;-61
2022/09/21 03:35:19;;;;;;;13.57;4.05;;;8.20;76.90;;;;;;4979018;28;20026;-60
2022/09/21 03:37:45;;;;;;;4.75;4.15;;;8.20;77.00;;;;;;4979639;28;20139;-61
2022/09/21 03:40:11;;;;;;;4.60;3.88;;;8.20;77.00;;;;;;4978245;28;20640;-59
2022/09/21 03:42:38;;;;;;;6.57;4.07;;;8.20;77.00;;;;;;4979661;28;20414;-59
2022/09/21 03:45:04;;;;;;;6.93;4.15;;;8.30;76.80;;;;;;4979348;28;20514;-60
2022/09/21 03:47:29;;;;;;;10.52;4.20;;;8.30;76.80;;;;;;4978918;28;20158;-61
2022/09/21 03:49:55;;;;;;;17.75;4.60;;;8.30;76.60;;;;;;4977573;28;20307;-60
2022/09/21 03:52:20;;;;;;;8.50;4.10;;;8.30;76.50;;;;;;4978717;28;20426;-59
2022/09/21 03:54:46;;;;;;;12.57;3.92;;;8.40;76.50;;;;;;4975491;28;20060;-61
2022/09/21 03:57:11;;;;;;;8.25;4.78;;;8.40;76.50;;;;;;4976346;28;20035;-59
2022/09/21 03:59:37;;;;;;;10.30;4.68;;;8.40;76.40;;;;;;4975945;28;20057;-58
2022/09/21 04:02:03;;;;;;;7.32;4.20;;;8.40;76.20;;;;;;4976324;28;20566;-60
2022/09/21 04:04:28;;;;;;;6.03;4.57;;;8.40;76.10;;;;;;4974319;28;20503;-59
2022/09/21 04:06:54;;;;;;;12.75;3.90;;;8.30;75.90;;;;;;4975301;28;20057;-60
2022/09/21 04:09:19;;;;;;;15.20;4.90;;;8.30;75.60;;;;;;4975585;28;20026;-61
2022/09/21 04:11:47;;;;;;;13.27;4.00;;;8.30;75.30;;;;;;4975182;28;20070;-58
2022/09/21 04:14:12;;;;;;;22.38;4.30;;;8.30;75.10;;;;;;4976051;28;20140;-61
2022/09/21 04:16:38;;;;;;;21.25;4.55;;;8.20;74.80;;;;;;4977024;28;20160;-61
2022/09/21 04:19:04;;;;;;;20.25;5.40;;;8.10;74.70;;;;;;4978342;28;20122;-59
2022/09/21 04:21:29;;;;;;;13.95;5.05;;;8.00;74.80;;;;;;4976023;28;20049;-62
2022/09/21 04:23:55;;;;;;;47.90;4.68;;;7.90;75.30;;;;;;4975586;28;20038;-60
2022/09/21 04:26:24;;;;;;;39.95;3.50;;;7.70;75.40;;;;;;4973677;28;20043;-61
2022/09/21 04:28:51;;;;;;;27.90;3.70;;;7.60;75.40;;;;;;4994668;28;20046;-60
2022/09/21 04:31:17;;;;;;;18.90;3.40;;;7.50;75.50;;;;;;4995789;28;20371;-61
2022/09/21 04:33:43;;;;;;;3.33;3.03;;;7.40;75.60;;;;;;4993380;28;20490;-61
2022/09/21 04:36:09;;;;;;;17.67;3.33;;;7.20;76.00;;;;;;4992703;28;20044;-60
2022/09/21 04:38:34;;;;;;;11.18;3.30;;;7.20;76.30;;;;;;4992003;28;20041;-61
2022/09/21 04:41:00;;;;;;;4.20;3.72;;;7.10;76.50;;;;;;4994534;28;20041;-61
2022/09/21 04:43:26;;;;;;;12.20;3.97;;;7.10;76.80;;;;;;4994764;28;20041;-61
2022/09/21 04:45:51;;;;;;;4.85;3.30;;;7.00;77.20;;;;;;4995627;28;20034;-60
2022/09/21 04:48:17;;;;;;;4.82;3.28;;;7.00;77.40;;;;;;4996753;28;20524;-60
2022/09/21 04:50:47;;;;;;;4.07;3.33;;;7.10;77.60;;;;;;4995098;28;20104;-59
2022/09/21 04:53:12;;;;;;;7.75;3.13;;;7.10;77.60;;;;;;4996781;28;20034;-59
2022/09/21 04:55:38;;;;;;;3.22;2.92;;;7.10;77.30;;;;;;4995019;28;20357;-59
2022/09/21 04:58:03;;;;;;;3.85;3.20;;;7.10;77.00;;;;;;4995383;28;20045;-58
2022/09/21 05:00:29;;;;;;;11.60;3.55;;;7.20;77.20;;;;;;4994781;28;20030;-59
2022/09/21 05:02:54;;;;;;;8.13;3.78;;;7.20;77.00;;;;;;4996493;28;20044;-60
2022/09/21 05:05:20;;;;;;;44.90;8.05;;;7.10;76.70;;;;;;4994888;28;20026;-60
2022/09/21 05:07:45;;;;;;;25.88;6.40;;;7.10;76.60;;;;;;4996570;28;20033;-59
2022/09/21 05:10:12;;;;;;;59.67;5.88;;;7.10;76.60;;;;;;4997770;28;20034;-59
2022/09/21 05:12:37;;;;;;;21.15;7.57;;;7.10;76.80;;;;;;4993827;28;20054;-59
2022/09/21 05:15:04;;;;;;;16.30;5.63;;;7.00;76.80;;;;;;4995610;28;20073;-58
2022/09/21 05:17:29;;;;;;;19.05;4.70;;;7.00;77.00;;;;;;4996865;28;20030;-60
2022/09/21 05:19:55;;;;;;;13.55;3.45;;;6.90;77.00;;;;;;4996390;28;20360;-60
2022/09/21 05:22:20;;;;;;;13.27;3.42;;;6.90;77.00;;;;;;4996862;28;20037;-61
2022/09/21 05:24:46;;;;;;;16.30;3.33;;;6.80;77.00;;;;;;4994926;28;20092;-61
2022/09/21 05:27:12;;;;;;;14.85;3.28;;;6.80;77.20;;;;;;4995701;28;20045;-61
2022/09/21 05:29:39;;;;;;;13.20;2.90;;;6.70;77.20;;;;;;4995586;28;20035;-61
2022/09/21 05:32:06;;;;;;;19.60;3.60;;;6.70;77.50;;;;;;4996194;28;20034;-60
2022/09/21 05:34:49;;;;;;;25.75;3.28;;;6.70;77.70;;;;;;4993444;28;20041;-57
2022/09/21 05:37:41;;;;;;;13.82;3.92;;;6.60;78.30;;;;;;4996492;28;20503;-60
2022/09/21 05:40:09;;;;;;;5.00;3.70;;;6.60;78.90;;;;;;4995560;28;20062;-60
2022/09/21 05:42:35;;;;;;;10.27;3.40;;;6.60;78.70;;;;;;4995785;28;20094;-60
2022/09/21 05:45:01;;;;;;;35.88;3.92;;;6.60;79.00;;;;;;4996300;28;20513;-61
2022/09/21 05:47:38;;;;;;;29.83;3.45;;;6.60;78.90;;;;;;4997457;28;20030;-60
2022/09/21 05:50:30;;;;;;;3.70;3.22;;;6.70;78.70;;;;;;4999866;28;20034;-61
2022/09/21 05:53:13;;;;;;;12.35;4.47;;;6.70;79.20;;;;;;4984150;28;20125;-61
2022/09/21 05:55:39;;;;;;;6.78;4.00;;;6.70;78.60;;;;;;4997687;28;20529;-59
2022/09/21 05:58:31;;;;;;;8.07;6.10;;;6.70;78.90;;;;;;4999609;28;20030;-59
2022/09/21 06:01:13;;;;;;;7.75;5.60;;;6.70;79.40;;;;;;4982999;28;20125;-60
2022/09/21 06:03:40;;;;;;;12.45;7.00;;;6.70;79.10;;;;;;5000029;28;20031;-60
2022/09/21 06:06:07;;;;;;;12.38;6.20;;;6.80;79.00;;;;;;5000573;28;20034;-58
2022/09/21 06:08:33;;;;;;;7.97;5.45;;;6.80;79.00;;;;;;4998454;28;20148;-59
2022/09/21 06:10:58;;;;;;;25.42;4.88;;;6.80;80.00;;;;;;4998608;28;20522;-61
2022/09/21 06:13:25;;;;;;;12.93;3.35;;;6.80;79.30;;;;;;4998447;28;20034;-60
2022/09/21 06:15:51;;;;;;;12.65;3.70;;;6.80;79.30;;;;;;4999236;28;20057;-58
2022/09/21 06:18:17;;;;;;;5.10;3.97;;;6.80;79.30;;;;;;4999462;28;20405;-60
2022/09/21 06:20:42;;;;;;;3.90;3.55;;;6.80;79.60;;;;;;4998217;28;20034;-61
2022/09/21 06:23:10;;;;;;;4.93;4.10;;;6.80;79.90;;;;;;4999685;28;20744;-60
2022/09/21 06:25:36;;;;;;;5.45;4.93;;;6.90;80.10;;;;;;4998676;28;20045;-60
2022/09/21 06:28:11;;;;;;;16.55;5.95;;;6.90;80.10;;;;;;4998197;28;20030;-60
2022/09/21 06:30:38;;;;;;;13.73;5.82;;;7.00;80.80;;;;;;4997524;28;20576;-60
2022/09/21 06:33:05;;;;;;;9.50;5.70;;;7.00;80.60;;;;;;4999459;28;20073;-60
2022/09/21 06:35:32;;;;;;;9.55;5.97;;;7.10;80.80;;;;;;4998866;28;20038;-60
2022/09/21 06:37:59;;;;;;;8.52;5.53;;;7.20;81.00;;;;;;4999187;28;20061;-61
2022/09/21 06:40:26;;;;;;;9.40;6.32;;;7.30;81.00;;;;;;4997092;28;20061;-59
2022/09/21 06:42:58;;;;;;;68.47;6.35;;;7.30;81.00;;;;;;4998144;28;20142;-60
2022/09/21 06:45:25;;;;;;;23.83;5.68;;;7.40;81.30;;;;;;4998004;28;20034;-58
2022/09/21 06:47:50;;;;;;;18.27;5.60;;;7.50;81.20;;;;;;4998981;28;20038;-60
2022/09/21 06:50:16;;;;;;;23.38;6.35;;;7.50;81.40;;;;;;4996921;28;20626;-59
2022/09/21 06:52:42;;;;;;;32.38;6.05;;;7.60;81.70;;;;;;4998249;28;20041;-59
2022/09/21 06:55:11;;;;;;;34.13;6.00;;;7.70;81.90;;;;;;4997652;28;20489;-59
2022/09/21 06:57:37;;;;;;;20.65;5.57;;;7.70;81.90;;;;;;4997629;28;20030;-60
2022/09/21 07:00:04;;;;;;;11.50;5.82;;;7.80;81.90;;;;;;4998178;28;20034;-60
2022/09/21 07:02:30;;;;;;;12.60;5.72;;;7.90;82.00;;;;;;4997085;28;20092;-59
2022/09/21 07:04:57;;;;;;;15.32;5.47;;;7.90;82.00;;;;;;4998555;28;20046;-61
2022/09/21 07:07:23;;;;;;;14.93;5.78;;;8.00;82.20;;;;;;4998920;28;20053;-60
2022/09/21 07:09:48;;;;;;;6.88;5.53;;;8.00;82.00;;;;;;4996999;28;20060;-60
2022/09/21 07:12:15;;;;;;;10.98;5.75;;;8.10;82.00;;;;;;4997281;28;20497;-60
2022/09/21 07:14:43;;;;;;;17.80;5.93;;;8.20;82.00;;;;;;4997452;28;20045;-61
2022/09/21 07:17:08;;;;;;;8.75;6.10;;;8.20;82.00;;;;;;4997794;28;20429;-60
2022/09/21 07:19:34;;;;;;;8.43;6.03;;;8.30;81.70;;;;;;4997246;28;20056;-60
2022/09/21 07:21:59;;;;;;;34.15;7.15;;;8.40;81.50;;;;;;4999502;28;20447;-61
2022/09/21 07:24:25;;;;;;;37.65;7.13;;;8.40;81.50;;;;;;4997839;28;20448;-59
2022/09/21 07:26:51;;;;;;;11.45;6.07;;;8.40;81.30;;;;;;4996303;28;20034;-60
2022/09/21 07:29:17;;;;;;;40.50;7.20;;;8.40;81.30;;;;;;4996436;28;20044;-61
2022/09/21 07:31:43;;;;;;;9.10;6.72;;;8.40;82.60;;;;;;4997170;28;20045;-61
2022/09/21 07:34:10;;;;;;;7.85;6.55;;;8.50;82.00;;;;;;5000356;28;20120;-61
2022/09/21 07:36:35;;;;;;;9.60;7.18;;;8.50;82.40;;;;;;5002026;28;20264;-59
2022/09/21 07:39:02;;;;;;;10.07;7.32;;;8.60;83.10;;;;;;5000827;28;20342;-60
2022/09/21 07:41:28;;;;;;;8.45;6.90;;;8.60;83.10;;;;;;4998764;28;20044;-60
2022/09/21 07:43:53;;;;;;;12.55;7.13;;;8.70;83.10;;;;;;4996422;28;20042;-59
2022/09/21 07:46:19;;;;;;;10.85;7.25;;;8.70;83.30;;;;;;4997710;28;20068;-59
2022/09/21 07:48:45;;;;;;;8.23;7.00;;;8.80;84.00;;;;;;4995322;28;20405;-58
2022/09/21 07:51:13;;;;;;;8.38;6.38;;;8.90;84.00;;;;;;4997135;28;20531;-60
2022/09/21 07:53:42;;;;;;;8.07;6.70;;;9.00;84.00;;;;;;4995860;28;20034;-59
2022/09/21 07:56:13;;;;;;;10.07;6.38;;;9.10;84.00;;;;;;4997911;28;20105;-60
2022/09/21 08:01:25;;;;;;;7.10;5.88;;;9.30;83.70;;;;;;4993527;28;20430;-62
2022/09/21 08:03:53;;;;;;;7.03;6.00;;;9.40;83.60;;;;;;4995126;28;20579;-61
2022/09/21 08:06:20;;;;;;;7.38;6.07;;;9.40;83.60;;;;;;4999607;28;20034;-59
2022/09/21 08:08:46;;;;;;;8.00;6.05;;;9.50;83.40;;;;;;4998866;28;20165;-59
2022/09/21 08:11:16;;;;;;;6.22;5.63;;;9.60;83.60;;;;;;4994801;28;20039;-61
2022/09/21 08:13:42;;;;;;;8.43;6.20;;;9.60;83.80;;;;;;4997272;28;20053;-61
2022/09/21 08:16:09;;;;;;;7.80;6.10;;;9.70;83.80;;;;;;4998345;28;20046;-59
2022/09/21 08:18:39;;;;;;;9.02;5.78;;;9.80;84.20;;;;;;4995926;28;20477;-59
2022/09/21 08:21:05;;;;;;;6.10;5.50;;;9.90;84.30;;;;;;4999073;28;20030;-60
2022/09/21 08:23:30;;;;;;;7.22;5.50;;;10.00;84.20;;;;;;4998354;28;20100;-60
2022/09/21 08:26:05;;;;;;;6.70;5.57;;;10.10;84.30;;;;;;4998284;28;20076;-60
2022/09/21 08:28:30;;;;;;;6.93;5.60;;;10.20;84.80;;;;;;4997901;28;20434;-60
2022/09/21 08:31:00;;;;;;;6.75;5.53;;;10.30;84.50;;;;;;4997569;28;20278;-60
2022/09/21 08:33:26;;;;;;;6.63;5.55;;;10.40;84.50;;;;;;4995964;28;20498;-60
2022/09/21 08:35:54;;;;;;;11.45;5.45;;;10.50;85.10;;;;;;4996711;28;20050;-61
2022/09/21 08:38:21;;;;;;;6.25;5.65;;;10.60;84.40;;;;;;5012921;28;20041;-59
2022/09/21 08:40:48;;;;;;;6.32;5.57;;;10.70;84.80;;;;;;4998828;28;20048;-61
2022/09/21 08:43:21;;;;;;;8.40;5.25;;;10.80;84.40;;;;;;5013682;28;20417;-61
2022/09/21 08:45:46;;;;;;;7.80;5.00;;;10.90;84.60;;;;;;4998498;28;20045;-60
2022/09/21 08:48:22;;;;;;;5.15;4.65;;;11.00;84.40;;;;;;4995924;28;20040;-61
2022/09/21 08:50:54;;;;;;;6.07;4.22;;;11.10;84.40;;;;;;4997196;28;20132;-60
2022/09/21 08:53:44;;;;;;;6.72;4.53;;;11.20;84.00;;;;;;4997942;28;20042;-60
2022/09/21 08:56:14;;;;;;;3.45;3.15;;;11.30;84.50;;;;;;4999589;28;20030;-60
2022/09/21 08:58:41;;;;;;;3.75;2.80;;;11.40;83.40;;;;;;4997698;28;20621;-59
2022/09/21 09:01:18;;;;;;;5.45;2.63;;;11.60;82.90;;;;;;4998242;28;20038;-61
2022/09/21 09:04:06;;;;;;;4.80;2.38;;;11.70;81.90;;;;;;4997822;28;20034;-61
2022/09/21 09:06:31;;;;;;;2.53;2.33;;;11.80;81.40;;;;;;4998040;28;20033;-61
2022/09/21 09:09:24;;;;;;;2.72;2.40;;;12.00;81.20;;;;;;4998311;28;20425;-60
2022/09/21 09:12:19;;;;;;;2.72;1.90;;;12.20;80.30;;;;;;4997317;28;20066;-61
2022/09/21 09:15:05;;;;;;;3.00;1.98;;;12.20;79.60;;;;;;4999161;28;20592;-60
2022/09/21 09:17:51;;;;;;;2.28;1.90;;;12.40;79.10;;;;;;5000139;28;20411;-60
2022/09/21 09:20:19;;;;;;;2.08;1.70;;;12.50;78.80;;;;;;4999119;28;20034;-59
2022/09/21 09:23:09;;;;;;;2.75;1.75;;;12.60;78.60;;;;;;4999416;28;20042;-60
2022/09/21 09:25:39;;;;;;;2.15;1.52;;;12.70;78.00;;;;;;5002303;28;20112;-59
2022/09/21 09:28:30;;;;;;;2.40;1.60;;;12.90;77.90;;;;;;5002703;28;20621;-59
2022/09/21 09:31:11;;;;;;;2.33;1.65;;;13.00;76.80;;;;;;4988620;28;20566;-59
2022/09/21 09:33:56;;;;;;;2.05;1.65;;;13.10;76.80;;;;;;5001594;28;20410;-60
2022/09/21 09:36:28;;;;;;;3.15;1.65;;;13.20;75.80;;;;;;5002440;28;20030;-60
2022/09/21 09:38:54;;;;;;;3.33;1.80;;;13.30;75.80;;;;;;5002412;28;20591;-59
2022/09/21 09:41:29;;;;;;;2.33;1.90;;;13.40;75.60;;;;;;5001866;28;20050;-60
2022/09/21 09:43:58;;;;;;;;;;;13.40;75.30;;;;;;5001918;28;20501;-61
2022/09/21 09:47:00;;;;;;;3.78;1.50;;;13.50;75.60;;;;;;5002349;28;19914;-61
2022/09/21 09:49:51;;;;;;;2.38;1.50;;;13.60;74.50;;;;;;5001465;28;20038;-61
2022/09/21 09:52:16;;;;;;;3.42;1.80;;;13.70;74.10;;;;;;5000977;28;20406;-60
2022/09/21 09:54:43;;;;;;;3.17;1.60;;;13.80;74.40;;;;;;5000873;28;20040;-59
2022/09/21 09:57:09;;;;;;;4.50;1.50;;;13.80;74.00;;;;;;4999927;28;20526;-60
2022/09/21 09:59:50;;;;;;;3.08;1.30;;;13.90;73.70;;;;;;5001396;28;20042;-61
2022/09/21 10:02:27;;;;;;;2.75;1.30;;;14.00;72.60;;;;;;5000244;28;20125;-61
2022/09/21 10:05:04;;;;;;;1.40;1.30;;;14.10;72.60;;;;;;4979005;28;20038;-60
2022/09/21 10:07:42;;;;;;;3.15;1.20;;;14.20;71.80;;;;;;4980055;28;20129;-61
2022/09/21 10:10:32;;;;;;;2.72;1.50;;;14.20;72.10;;;;;;4979003;28;20050;-60
2022/09/21 10:13:13;;;;;;;2.08;1.20;;;14.40;71.50;;;;;;4979532;28;20066;-61
2022/09/21 10:16:12;;;;;;;2.08;1.35;;;14.50;71.50;;;;;;4991771;28;20041;-61
2022/09/21 10:18:55;;;;;;;1.95;0.95;;;14.50;71.00;;;;;;5000208;28;20565;-60
2022/09/21 10:21:31;;;;;;;1.63;1.00;;;14.60;70.60;;;;;;5000293;28;20038;-61
2022/09/21 10:24:12;;;;;;;0.85;0.80;;;14.70;71.10;;;;;;4999777;28;20026;-60
2022/09/21 10:27:03;;;;;;;1.58;1.00;;;14.70;69.50;;;;;;5001441;28;20413;-60
2022/09/21 10:29:41;;;;;;;2.80;1.30;;;14.80;69.00;;;;;;5000257;28;20030;-60
2022/09/21 10:32:28;;;;;;;1.00;0.90;;;14.80;69.80;;;;;;5000316;28;20369;-61
2022/09/21 10:35:11;;;;;;;1.15;0.70;;;14.80;68.50;;;;;;4979034;28;20034;-60
2022/09/21 10:37:41;;;;;;;0.80;0.80;;;14.80;69.10;;;;;;4980592;28;20042;-59
2022/09/21 10:40:19;;;;;;;1.95;0.98;;;14.90;69.60;;;;;;4980180;28;20039;-61
2022/09/21 10:42:47;;;;;;;2.47;0.90;;;15.00;69.10;;;;;;4980223;28;20046;-61
2022/09/21 10:45:20;;;;;;;1.50;1.00;;;14.90;68.90;;;;;;4980052;28;20093;-61
2022/09/21 10:47:49;;;;;;;2.42;0.88;;;15.00;68.50;;;;;;4979834;28;20026;-60
2022/09/21 10:50:35;;;;;;;1.77;0.82;;;15.00;68.10;;;;;;4979291;28;20450;-60
2022/09/21 10:53:29;;;;;;;1.88;0.98;;;15.10;68.20;;;;;;4999121;28;20490;-61
2022/09/21 10:56:15;;;;;;;2.63;0.98;;;15.10;67.30;;;;;;4999195;28;20525;-60
2022/09/21 10:59:18;;;;;;;1.58;0.95;;;15.20;66.70;;;;;;4997174;28;20035;-60
2022/09/21 11:01:46;;;;;;;1.13;0.65;;;15.20;67.10;;;;;;4998686;28;20022;-61
2022/09/21 11:04:28;;;;;;;1.70;0.70;;;15.30;67.80;;;;;;4998015;28;20042;-61
2022/09/21 11:07:05;;;;;;;1.08;0.57;;;15.30;67.30;;;;;;4998808;28;20065;-62
2022/09/21 11:09:34;;;;;;;0.68;0.63;;;15.30;67.10;;;;;;4999122;28;20034;-61
2022/09/21 11:12:06;;;;;;;1.13;0.60;;;15.40;67.30;;;;;;4995459;28;20120;-60
2022/09/21 11:14:48;;;;;;;2.05;0.50;;;15.40;67.40;;;;;;4998485;28;20034;-61
2022/09/21 11:17:40;;;;;;;0.95;0.80;;;15.50;65.60;;;;;;5000194;28;20149;-61
2022/09/21 11:20:32;;;;;;;3.42;0.88;;;15.60;64.60;;;;;;4997709;28;20092;-59
2022/09/21 11:23:09;;;;;;;1.35;0.60;;;15.60;64.70;;;;;;4979286;28;20059;-61
2022/09/21 11:26:05;;;;;;;1.58;0.50;;;15.60;65.50;;;;;;4980556;28;20461;-62
2022/09/21 11:28:36;;;;;;;;;;;15.60;65.20;;;;;;4984078;28;20039;-62
2022/09/21 11:31:11;;;;;;;1.08;0.47;;;15.70;66.00;;;;;;4985857;28;19928;-62
2022/09/21 11:34:15;;;;;;;1.63;0.50;;;15.80;64.60;;;;;;4998657;28;20076;-60
2022/09/21 11:37:17;;;;;;;3.15;0.65;;;15.80;64.60;;;;;;5007912;28;20040;-62
2022/09/21 11:39:52;;;;;;;2.10;0.50;;;15.80;64.60;;;;;;4999787;28;20046;-59
2022/09/21 11:42:26;;;;;;;1.10;0.50;;;15.80;65.90;;;;;;5000374;28;20034;-59
2022/09/21 11:45:27;;;;;;;2.28;0.50;;;15.90;65.00;;;;;;4983781;28;20399;-60
2022/09/21 11:48:06;;;;;;;0.60;0.40;;;16.00;64.00;;;;;;4997536;28;20517;-61
2022/09/21 11:50:57;;;;;;;1.15;0.55;;;16.10;64.30;;;;;;4998674;28;20045;-60
2022/09/21 11:53:45;;;;;;;1.02;0.55;;;16.10;62.70;;;;;;4998505;28;20121;-60
2022/09/21 11:56:35;;;;;;;0.80;0.40;;;16.10;63.20;;;;;;5000228;28;20117;-61
2022/09/21 11:59:38;;;;;;;1.70;0.70;;;16.20;63.60;;;;;;4999051;28;20029;-61
2022/09/21 12:02:33;;;;;;;0.65;0.60;;;16.20;62.40;;;;;;4998700;28;20019;-60
2022/09/21 12:05:20;;;;;;;0.90;0.70;;;16.30;62.00;;;;;;5010868;28;20041;-61
2022/09/21 12:08:12;;;;;;;0.82;0.40;;;16.30;62.60;;;;;;4979688;28;20038;-60
2022/09/21 12:10:51;;;;;;;0.93;0.70;;;16.30;61.70;;;;;;4978847;28;20375;-60
2022/09/21 12:13:57;;;;;;;1.63;0.70;;;16.30;62.30;;;;;;4976702;28;20550;-61
2022/09/21 12:16:40;;;;;;;0.83;0.60;;;16.30;61.30;;;;;;4998308;28;20061;-61
2022/09/21 12:19:12;;;;;;;4.57;0.60;;;16.40;61.50;;;;;;4976757;28;20034;-61
2022/09/21 12:21:46;;;;;;;0.60;0.50;;;16.40;61.70;;;;;;4978498;28;20398;-61
2022/09/21 12:24:32;;;;;;;0.82;0.60;;;16.40;61.30;;;;;;4978510;28;20129;-61
2022/09/21 12:27:04;;;;;;;1.02;0.57;;;16.50;61.50;;;;;;4976954;28;20031;-61
2022/09/21 12:29:36;;;;;;;0.90;0.70;;;16.50;61.10;;;;;;4978328;28;20057;-61
2022/09/21 12:32:35;;;;;;;1.20;0.63;;;16.60;61.00;;;;;;4978949;28;20137;-60
2022/09/21 12:35:04;;;;;;;1.42;0.70;;;16.60;58.80;;;;;;4975991;28;20037;-61
2022/09/21 12:37:56;;;;;;;2.78;0.70;;;16.60;60.00;;;;;;4978411;28;20038;-61
2022/09/21 12:40:30;;;;;;;1.35;0.60;;;16.60;60.00;;;;;;4976708;28;20030;-60
2022/09/21 12:43:23;;;;;;;0.70;0.40;;;16.60;59.70;;;;;;4977075;28;20042;-61
2022/09/21 12:46:02;;;;;;;0.95;0.40;;;16.60;59.40;;;;;;4978457;28;20096;-61
2022/09/21 12:48:37;;;;;;;1.45;0.35;;;16.60;58.90;;;;;;4976525;28;20046;-61
2022/09/21 12:51:04;;;;;;;;;;;16.50;59.30;;;;;;4982629;28;20046;-60
2022/09/21 12:53:33;;;;;;;1.42;0.40;;;16.60;59.30;;;;;;4995412;28;19921;-59
2022/09/21 12:55:59;;;;;;;2.47;0.52;;;16.50;59.90;;;;;;4997995;28;20041;-61
2022/09/21 12:58:25;;;;;;;1.67;0.80;;;16.50;59.50;;;;;;4997021;28;20088;-61
2022/09/21 13:00:54;;;;;;;0.55;0.40;;;16.60;59.20;;;;;;4998265;28;20045;-61
2022/09/21 13:03:35;;;;;;;1.45;0.50;;;16.60;58.90;;;;;;4997476;28;20065;-61
2022/09/21 13:06:05;;;;;;;0.55;0.30;;;16.60;58.40;;;;;;4997124;28;20521;-60
2022/09/21 13:08:41;;;;;;;1.05;0.50;;;16.60;58.90;;;;;;4998474;28;20053;-61
2022/09/21 13:11:07;;;;;;;0.70;0.30;;;16.60;58.20;;;;;;4995084;28;20555;-61
2022/09/21 13:13:58;;;;;;;0.90;0.50;;;16.60;58.90;;;;;;4998638;28;20041;-61
2022/09/21 13:16:30;;;;;;;2.15;0.60;;;16.70;58.30;;;;;;4997238;28;20502;-61
2022/09/21 13:18:59;;;;;;;0.73;0.43;;;16.70;58.60;;;;;;4996873;28;20053;-60
2022/09/21 13:21:29;;;;;;;1.30;0.47;;;16.70;58.50;;;;;;4997670;28;20469;-59